Time;durP1;ratioP1;P1;durP2;ratioP2;P2;SDS_P1;SDS_P2;PMS_P1;PMS_P2;Temp;Humidity;BMP_temperature;BMP_pressure;BME280_temperature;BME280_humidity;BME280_pressure;Samples;Min_cycle;Max_cycle;Signal;HPM_P1;HPM_P2
2023/01/18 00:01:09;;;;;;;2.63;0.90;;;31.40;96.20;;;;;;5025289;28;20461;-68
2023/01/18 00:03:37;;;;;;;3.05;1.00;;;31.50;95.20;;;;;;5025768;28;20072;-69
2023/01/18 00:06:07;;;;;;;1.60;1.10;;;31.40;96.00;;;;;;5024567;28;20026;-67
2023/01/18 00:08:35;;;;;;;3.40;1.00;;;31.20;96.30;;;;;;5024738;28;21025;-67
2023/01/18 00:11:06;;;;;;;1.55;0.65;;;31.00;96.10;;;;;;5024494;28;20018;-62
2023/01/18 00:13:33;;;;;;;1.50;0.70;;;31.00;95.90;;;;;;5024876;28;20057;-67
2023/01/18 00:16:10;;;;;;;3.63;0.75;;;31.00;95.50;;;;;;5025231;28;20601;-67
2023/01/18 00:18:37;;;;;;;1.63;0.82;;;31.10;94.70;;;;;;5025367;28;20032;-61
2023/01/18 00:21:05;;;;;;;1.58;0.85;;;30.70;94.70;;;;;;5024162;28;20430;-67
2023/01/18 00:23:32;;;;;;;3.05;0.90;;;30.30;95.10;;;;;;5023629;28;20029;-62
2023/01/18 00:26:01;;;;;;;0.68;0.45;;;29.80;95.10;;;;;;5025058;28;20053;-61
2023/01/18 00:28:28;;;;;;;2.97;0.88;;;29.60;95.10;;;;;;5025785;28;20021;-68
2023/01/18 00:30:55;;;;;;;6.22;2.67;;;29.60;95.80;;;;;;5024286;28;20049;-66
2023/01/18 00:33:22;;;;;;;5.50;2.63;;;29.60;95.50;;;;;;5025279;28;20095;-68
2023/01/18 00:36:01;;;;;;;4.55;1.52;;;29.60;94.80;;;;;;5025181;28;20500;-68
2023/01/18 00:38:29;;;;;;;1.98;1.13;;;29.50;95.10;;;;;;5025419;28;20034;-59
2023/01/18 00:40:56;;;;;;;2.53;0.70;;;29.50;94.90;;;;;;5023905;28;20025;-61
2023/01/18 00:43:38;;;;;;;3.33;0.88;;;29.60;95.00;;;;;;5023512;28;20038;-61
2023/01/18 00:46:05;;;;;;;;;;;30.00;94.50;;;;;;5016873;28;20036;-61
2023/01/18 00:48:32;;;;;;;1.83;0.88;;;30.60;95.20;;;;;;5024429;28;19955;-62
2023/01/18 00:50:59;;;;;;;1.92;0.70;;;31.20;94.10;;;;;;5028762;28;20029;-68
2023/01/18 00:53:26;;;;;;;2.95;0.80;;;31.90;93.90;;;;;;5024848;28;20269;-68
2023/01/18 00:55:53;;;;;;;3.08;1.05;;;32.40;92.80;;;;;;5021095;28;20057;-62
2023/01/18 00:58:20;;;;;;;2.22;0.70;;;32.80;92.50;;;;;;5021331;28;20511;-61
2023/01/18 01:00:52;;;;;;;1.98;1.15;;;32.90;92.30;;;;;;5022522;28;20033;-67
2023/01/18 01:03:20;;;;;;;3.08;0.93;;;32.60;92.00;;;;;;5024883;28;20037;-69
2023/01/18 01:08:32;;;;;;;2.13;0.82;;;33.20;91.20;;;;;;5029110;28;20562;-69
2023/01/18 01:11:09;;;;;;;1.63;0.70;;;32.90;90.40;;;;;;5023066;28;20033;-66
2023/01/18 01:27:23;;;;;;;7.35;4.13;;;34.50;84.70;;;;;;5021092;28;20368;-61
2023/01/18 01:29:53;;;;;;;5.60;2.25;;;34.60;86.00;;;;;;5031976;23;20053;-62
2023/01/18 01:32:20;;;;;;;3.03;1.40;;;34.90;83.60;;;;;;5022999;28;20119;-62
2023/01/18 01:34:47;;;;;;;3.10;0.85;;;34.80;83.40;;;;;;5023253;28;20071;-67
2023/01/18 01:37:14;;;;;;;1.92;0.90;;;34.70;81.40;;;;;;5023364;28;20098;-66
2023/01/18 01:39:41;;;;;;;3.95;1.80;;;34.90;80.80;;;;;;5023779;28;20026;-62
2023/01/18 01:42:11;;;;;;;1.83;1.15;;;35.00;79.70;;;;;;5023247;28;20017;-69
2023/01/18 01:44:46;;;;;;;4.03;1.40;;;35.10;81.00;;;;;;5023938;28;20120;-67
2023/01/18 01:47:24;;;;;;;2.60;1.80;;;35.20;78.00;;;;;;5016455;28;20105;-62
2023/01/18 01:49:55;;;;;;;1.45;0.98;;;35.10;76.00;;;;;;5022765;28;20029;-66
2023/01/18 01:52:33;;;;;;;2.23;0.90;;;35.20;76.50;;;;;;5023713;28;20026;-62
2023/01/18 01:55:07;;;;;;;5.18;2.90;;;35.30;72.40;;;;;;5023678;28;20040;-62
2023/01/18 01:58:02;;;;;;;4.05;1.35;;;35.50;77.20;;;;;;5023339;28;20554;-62
2023/01/18 02:00:30;;;;;;;2.65;2.05;;;35.60;78.00;;;;;;5022871;28;20048;-68
2023/01/18 02:03:04;;;;;;;2.53;1.38;;;36.00;77.40;;;;;;5023347;28;20028;-67
2023/01/18 02:05:35;;;;;;;4.45;1.73;;;35.90;78.50;;;;;;5017981;28;20246;-63
2023/01/18 02:08:03;;;;;;;1.95;1.40;;;35.70;77.00;;;;;;5023512;28;20164;-62
2023/01/18 02:10:31;;;;;;;1.65;1.10;;;35.70;77.90;;;;;;5022684;28;20417;-64
2023/01/18 02:12:59;;;;;;;1.63;1.00;;;36.20;76.90;;;;;;5022566;28;20195;-64
2023/01/18 02:15:36;;;;;;;1.48;0.93;;;36.60;77.80;;;;;;5020534;28;20516;-64
2023/01/18 02:18:14;;;;;;;4.40;1.23;;;36.80;76.90;;;;;;5023195;28;20444;-63
2023/01/18 02:21:11;;;;;;;2.42;1.08;;;37.00;75.90;;;;;;5021760;28;20052;-69
2023/01/18 02:24:07;;;;;;;2.80;1.10;;;37.20;77.00;;;;;;5013004;28;20079;-63
2023/01/18 02:26:43;;;;;;;2.72;2.00;;;37.50;74.60;;;;;;4935848;29;20126;-62
2023/01/18 02:29:52;;;;;;;3.53;3.13;;;37.40;74.30;;;;;;4940030;28;20600;-66
2023/01/18 02:32:45;;;;;;;3.80;2.58;;;37.00;74.20;;;;;;4938089;29;20244;-67
2023/01/18 02:35:38;;;;;;;3.08;1.70;;;37.10;75.30;;;;;;4940479;29;20043;-63
2023/01/18 02:38:17;;;;;;;2.78;1.92;;;36.90;73.70;;;;;;4884393;29;20160;-68
2023/01/18 02:46:29;;;;;;;3.15;1.90;;;37.10;74.40;;;;;;4883653;29;20047;-68
2023/01/18 02:47:11;;;;;;;3.65;2.22;;;37.70;74.30;;;;;;4846278;29;20198;-62
2023/01/18 02:49:38;;;;;;;2.50;1.88;;;38.40;74.80;;;;;;4847116;29;20033;-66
2023/01/18 02:52:07;;;;;;;4.30;1.90;;;38.60;72.00;;;;;;4847880;29;20026;-61
2023/01/18 02:54:38;;;;;;;3.80;2.80;;;38.40;71.60;;;;;;4847730;29;20850;-62
2023/01/18 02:57:07;;;;;;;;;;;37.80;71.70;;;;;;4847442;29;20037;-69
2023/01/18 02:59:35;;;;;;;2.65;2.20;;;37.90;72.50;;;;;;4847364;29;20278;-61
2023/01/18 03:02:12;;;;;;;3.33;2.60;;;38.40;72.40;;;;;;4846728;29;20048;-61
2023/01/18 03:04:53;;;;;;;3.10;2.70;;;39.10;70.80;;;;;;4897284;29;20067;-62
2023/01/18 03:07:33;;;;;;;2.80;2.60;;;39.40;71.10;;;;;;4902885;29;20567;-63
2023/01/18 03:10:04;;;;;;;3.53;2.20;;;39.80;68.60;;;;;;4898914;29;20436;-67
2023/01/18 03:12:46;;;;;;;3.58;2.47;;;40.30;70.10;;;;;;4901963;29;20542;-63
2023/01/18 03:15:27;;;;;;;2.67;2.47;;;40.20;70.70;;;;;;4918208;28;20953;-62
2023/01/18 03:18:04;;;;;;;3.67;2.75;;;40.20;68.20;;;;;;4979734;28;20492;-63
2023/01/18 03:20:37;;;;;;;4.30;2.60;;;40.80;69.20;;;;;;5015650;28;20037;-63
2023/01/18 03:23:41;;;;;;;3.90;2.63;;;41.30;67.50;;;;;;5016633;28;20396;-62
2023/01/18 03:26:16;;;;;;;4.53;2.40;;;40.70;64.70;;;;;;4977102;28;20050;-66
2023/01/18 03:35:06;;;;;;;3.63;3.03;;;41.20;68.10;;;;;;4974766;28;20060;-69
2023/01/18 03:37:37;;;;;;;3.03;2.40;;;41.80;67.70;;;;;;4967759;28;20031;-68
2023/01/18 03:40:10;;;;;;;7.85;3.20;;;41.70;65.70;;;;;;4977809;28;20026;-67
2023/01/18 03:43:06;;;;;;;3.28;2.67;;;40.50;65.00;;;;;;4981711;28;20054;-66
2023/01/18 03:45:38;;;;;;;4.32;2.30;;;40.50;64.20;;;;;;4977074;28;20227;-62
2023/01/18 03:48:07;;;;;;;2.67;2.15;;;40.50;64.30;;;;;;4975860;28;20041;-61
2023/01/18 03:50:51;;;;;;;3.20;2.20;;;40.00;63.60;;;;;;4978004;28;20049;-63
2023/01/18 03:53:46;;;;;;;7.70;5.32;;;39.70;65.80;;;;;;4978180;28;20213;-60
2023/01/18 03:56:37;;;;;;;2.92;2.28;;;39.90;65.80;;;;;;4972012;28;20038;-62
2023/01/18 03:59:05;;;;;;;4.00;3.60;;;39.40;67.60;;;;;;4975189;28;20168;-62
2023/01/18 04:01:33;;;;;;;4.15;3.75;;;38.90;66.90;;;;;;4982935;28;20042;-64
2023/01/18 04:04:00;;;;;;;4.95;4.32;;;38.60;69.00;;;;;;5008534;28;20053;-64
2023/01/18 04:06:27;;;;;;;4.00;3.60;;;38.90;66.50;;;;;;5025608;28;20029;-61
2023/01/18 04:08:54;;;;;;;4.13;3.00;;;38.80;67.90;;;;;;5025417;28;20531;-66
2023/01/18 04:11:21;;;;;;;4.50;4.10;;;39.40;65.80;;;;;;5030661;28;20051;-62
2023/01/18 04:13:48;;;;;;;3.70;3.25;;;39.10;68.20;;;;;;5023243;28;20032;-61
2023/01/18 04:16:15;;;;;;;3.78;3.35;;;39.40;69.20;;;;;;5018816;28;20145;-63
2023/01/18 04:18:42;;;;;;;4.22;3.20;;;39.80;67.50;;;;;;5015335;28;20550;-66
2023/01/18 04:21:08;;;;;;;4.80;3.20;;;40.30;66.00;;;;;;5021483;28;20455;-63
2023/01/18 04:23:35;;;;;;;2.90;2.63;;;39.90;64.60;;;;;;5011127;28;20034;-63
2023/01/18 04:26:02;;;;;;;4.18;3.38;;;40.30;67.30;;;;;;5016494;28;20040;-65
2023/01/18 04:28:32;;;;;;;4.63;3.03;;;41.00;66.90;;;;;;5014405;28;20165;-63
2023/01/18 04:30:59;;;;;;;3.92;2.95;;;41.40;64.40;;;;;;5020216;28;20076;-65
2023/01/18 04:33:26;;;;;;;5.45;4.25;;;42.60;66.60;;;;;;5023362;28;20547;-63
2023/01/18 04:35:53;;;;;;;4.15;3.28;;;42.50;63.80;;;;;;5024287;28;20132;-62
2023/01/18 04:38:20;;;;;;;3.88;2.85;;;42.50;64.30;;;;;;5023062;28;20065;-63
2023/01/18 04:40:48;;;;;;;3.78;2.75;;;42.40;65.20;;;;;;5021994;28;20037;-64
2023/01/18 04:43:15;;;;;;;3.50;2.58;;;42.90;61.40;;;;;;5023198;28;20028;-64
2023/01/18 04:45:45;;;;;;;3.80;2.60;;;43.10;62.70;;;;;;5022921;28;20492;-64
2023/01/18 04:48:12;;;;;;;2.60;2.33;;;42.90;62.10;;;;;;5021593;28;20060;-64
2023/01/18 04:50:44;;;;;;;3.25;2.67;;;42.10;63.50;;;;;;5018988;28;20358;-64
2023/01/18 04:53:11;;;;;;;8.55;7.72;;;41.40;63.20;;;;;;5023000;28;20480;-64
2023/01/18 04:55:41;;;;;;;16.60;15.05;;;40.70;62.80;;;;;;5022840;28;20022;-64
2023/01/18 04:58:08;;;;;;;6.88;6.25;;;40.10;64.60;;;;;;5022932;28;20102;-65
2023/01/18 05:00:38;;;;;;;4.20;3.22;;;39.40;63.50;;;;;;5023606;28;20033;-64
2023/01/18 05:03:10;;;;;;;3.30;2.83;;;38.60;64.50;;;;;;5022498;28;20027;-65
2023/01/18 05:05:40;;;;;;;5.60;3.38;;;38.90;64.80;;;;;;5021071;28;20049;-62
2023/01/18 05:08:07;;;;;;;5.15;2.40;;;38.70;64.40;;;;;;5022693;28;20160;-63
2023/01/18 05:10:33;;;;;;;4.38;2.58;;;38.50;64.20;;;;;;5022821;28;20029;-62
2023/01/18 05:13:00;;;;;;;3.53;3.22;;;38.30;63.70;;;;;;5022040;28;20457;-62
2023/01/18 05:15:33;;;;;;;3.45;3.15;;;38.20;65.60;;;;;;5022876;28;20091;-63
2023/01/18 05:18:01;;;;;;;4.93;3.13;;;38.10;66.20;;;;;;5022078;28;20025;-63
2023/01/18 05:20:28;;;;;;;3.72;3.17;;;38.00;66.50;;;;;;5018264;28;20083;-65
2023/01/18 05:22:55;;;;;;;4.35;3.10;;;38.00;66.50;;;;;;5012112;28;20190;-63
2023/01/18 05:25:22;;;;;;;5.80;3.45;;;38.00;67.30;;;;;;5021184;28;20091;-65
2023/01/18 05:27:49;;;;;;;3.88;3.47;;;38.00;67.40;;;;;;5022861;28;20026;-63
2023/01/18 05:30:17;;;;;;;4.18;3.38;;;38.00;67.90;;;;;;5020873;28;20044;-64
2023/01/18 05:32:43;;;;;;;5.18;3.20;;;38.00;66.10;;;;;;5020959;28;20021;-65
2023/01/18 05:35:10;;;;;;;3.40;3.05;;;38.00;65.20;;;;;;5021699;28;20492;-62
2023/01/18 05:37:37;;;;;;;3.88;3.47;;;37.80;65.80;;;;;;5021269;28;20036;-65
2023/01/18 05:40:05;;;;;;;4.60;3.35;;;37.50;65.30;;;;;;5020041;28;20032;-64
2023/01/18 05:42:31;;;;;;;3.80;3.20;;;37.50;65.70;;;;;;5021917;28;20418;-61
2023/01/18 05:44:58;;;;;;;5.82;2.55;;;37.30;65.50;;;;;;5018962;28;20029;-62
2023/01/18 05:47:26;;;;;;;6.07;2.10;;;37.30;70.00;;;;;;5020655;28;20030;-61
2023/01/18 05:49:53;;;;;;;6.97;1.90;;;37.30;71.80;;;;;;5021637;28;20032;-64
2023/01/18 05:52:19;;;;;;;8.25;2.17;;;37.00;74.40;;;;;;5021113;28;20025;-65
2023/01/18 05:54:46;;;;;;;5.30;1.42;;;36.70;76.20;;;;;;5020155;28;20079;-62
2023/01/18 05:57:13;;;;;;;5.55;1.90;;;36.30;77.70;;;;;;5022132;28;20071;-64
2023/01/18 05:59:40;;;;;;;4.57;1.80;;;36.00;78.00;;;;;;5020860;28;20033;-63
2023/01/18 06:02:07;;;;;;;5.22;2.00;;;35.60;79.00;;;;;;5020749;28;20029;-62
2023/01/18 06:04:34;;;;;;;5.57;2.08;;;35.20;79.10;;;;;;5019092;28;20075;-65
2023/01/18 06:07:01;;;;;;;4.28;2.10;;;35.00;80.60;;;;;;5021355;28;20411;-65
2023/01/18 06:09:29;;;;;;;7.07;1.95;;;35.00;80.70;;;;;;5020981;28;20014;-64
2023/01/18 06:11:56;;;;;;;5.25;1.50;;;34.70;81.10;;;;;;5019195;28;20123;-62
2023/01/18 06:14:23;;;;;;;4.75;1.80;;;34.30;82.50;;;;;;5020381;28;20075;-64
2023/01/18 06:16:50;;;;;;;4.30;2.00;;;34.10;83.00;;;;;;5019082;28;20060;-65
2023/01/18 06:19:17;;;;;;;6.47;2.20;;;33.80;84.00;;;;;;5023154;28;20049;-62
2023/01/18 06:21:43;;;;;;;6.95;2.15;;;33.70;84.20;;;;;;5020919;28;20557;-62
2023/01/18 06:24:10;;;;;;;8.00;2.40;;;33.50;84.80;;;;;;5019391;28;20044;-63
2023/01/18 06:26:37;;;;;;;3.97;2.00;;;33.30;85.70;;;;;;5019467;28;20017;-63
2023/01/18 06:29:04;;;;;;;6.68;2.60;;;33.20;86.00;;;;;;5020219;28;20543;-62
2023/01/18 06:31:31;;;;;;;6.53;2.00;;;33.00;86.50;;;;;;5019190;28;20459;-63
2023/01/18 06:33:58;;;;;;;4.03;1.70;;;32.90;86.70;;;;;;5020328;28;20501;-63
2023/01/18 06:36:28;;;;;;;4.45;1.77;;;32.60;87.30;;;;;;5019784;28;20507;-62
2023/01/18 06:38:54;;;;;;;6.93;2.10;;;32.40;88.40;;;;;;5019050;28;20039;-67
2023/01/18 06:41:21;;;;;;;4.80;1.63;;;32.20;88.80;;;;;;5016242;28;20026;-67
2023/01/18 06:43:49;;;;;;;7.10;1.90;;;32.00;89.70;;;;;;5017840;28;20047;-62
2023/01/18 06:46:18;;;;;;;7.53;2.72;;;31.90;90.00;;;;;;5020044;28;20043;-64
2023/01/18 06:48:45;;;;;;;10.43;2.67;;;31.70;90.10;;;;;;5020694;28;20030;-66
2023/01/18 06:51:12;;;;;;;6.55;2.30;;;31.40;90.60;;;;;;5019527;28;20614;-63
2023/01/18 06:53:39;;;;;;;5.95;1.52;;;31.20;90.90;;;;;;5018425;28;20037;-59
2023/01/18 06:56:09;;;;;;;6.13;1.70;;;30.90;91.40;;;;;;5017613;28;20029;-60
2023/01/18 06:58:36;;;;;;;7.93;2.20;;;30.70;91.80;;;;;;5019790;28;20025;-60
2023/01/18 07:01:03;;;;;;;6.75;2.28;;;30.70;92.10;;;;;;5019028;28;20567;-60
2023/01/18 07:03:31;;;;;;;10.23;2.40;;;30.70;92.40;;;;;;5015938;28;20033;-62
2023/01/18 07:06:00;;;;;;;8.98;2.10;;;30.60;92.50;;;;;;5018006;28;20022;-63
2023/01/18 07:08:31;;;;;;;9.02;2.60;;;30.80;92.50;;;;;;5019292;28;20402;-64
2023/01/18 07:11:05;;;;;;;5.80;2.30;;;30.90;92.50;;;;;;5018992;28;20033;-62
2023/01/18 07:13:33;;;;;;;8.57;2.60;;;30.90;92.70;;;;;;5020673;28;20037;-62
2023/01/18 07:16:01;;;;;;;9.80;2.65;;;30.70;92.90;;;;;;5020054;28;20534;-63
2023/01/18 07:18:29;;;;;;;10.43;2.53;;;30.80;92.90;;;;;;5021450;28;20163;-62
2023/01/18 07:20:58;;;;;;;7.50;2.83;;;30.80;93.00;;;;;;5025001;28;20025;-64
2023/01/18 07:23:26;;;;;;;5.10;2.05;;;30.70;93.30;;;;;;5022768;28;20083;-61
2023/01/18 07:26:06;;;;;;;7.03;2.17;;;30.60;93.60;;;;;;5025151;28;20029;-64
2023/01/18 07:28:35;;;;;;;7.55;2.70;;;30.80;93.50;;;;;;5023556;28;20132;-65
2023/01/18 07:31:03;;;;;;;8.13;2.38;;;30.90;93.50;;;;;;5024604;28;20413;-64
2023/01/18 07:33:30;;;;;;;12.27;2.55;;;30.90;93.50;;;;;;5023334;28;20088;-63
2023/01/18 07:35:58;;;;;;;7.93;2.40;;;30.90;93.60;;;;;;5024264;28;20099;-63
2023/01/18 07:38:25;;;;;;;6.95;2.83;;;30.80;94.00;;;;;;5023442;28;20127;-63
2023/01/18 07:41:00;;;;;;;8.23;2.50;;;30.60;94.10;;;;;;5024441;28;20025;-65
2023/01/18 07:43:29;;;;;;;8.93;2.58;;;30.50;94.40;;;;;;5023916;28;20047;-63
2023/01/18 07:45:57;;;;;;;7.85;2.42;;;30.40;94.50;;;;;;5024170;28;20026;-65
2023/01/18 07:48:27;;;;;;;11.95;2.80;;;30.30;94.60;;;;;;5020732;28;20029;-67
2023/01/18 07:50:54;;;;;;;8.90;2.20;;;30.10;95.00;;;;;;5015883;28;20117;-64
2023/01/18 07:53:22;;;;;;;8.55;3.05;;;29.90;95.40;;;;;;5005397;28;20034;-64
2023/01/18 07:55:49;;;;;;;9.70;2.83;;;29.80;95.60;;;;;;5005202;28;20053;-68
2023/01/18 07:58:17;;;;;;;8.90;2.88;;;29.80;95.70;;;;;;5004798;28;20502;-63
2023/01/18 08:00:45;;;;;;;12.35;2.75;;;29.70;95.90;;;;;;4996686;28;20036;-63
2023/01/18 08:03:14;;;;;;;10.95;2.60;;;29.80;96.40;;;;;;5001497;28;20034;-64
2023/01/18 08:05:42;;;;;;;9.82;3.08;;;29.90;96.10;;;;;;5004447;28;20668;-63
2023/01/18 08:08:11;;;;;;;7.35;2.63;;;29.90;96.20;;;;;;5002753;28;20022;-63
2023/01/18 08:10:38;;;;;;;7.15;2.13;;;30.00;96.00;;;;;;5001972;28;20463;-66
2023/01/18 08:13:09;;;;;;;7.68;2.65;;;29.90;96.10;;;;;;5001081;28;20034;-67
2023/01/18 08:15:37;;;;;;;12.38;6.57;;;29.90;96.20;;;;;;5003763;28;20061;-65
2023/01/18 08:18:06;;;;;;;9.80;3.42;;;29.80;96.50;;;;;;5004912;28;20033;-70
2023/01/18 08:20:34;;;;;;;10.30;3.00;;;29.70;96.50;;;;;;5000473;28;20036;-65
2023/01/18 08:23:02;;;;;;;7.05;2.55;;;29.60;96.50;;;;;;5001105;28;20029;-64
2023/01/18 08:25:32;;;;;;;9.30;2.38;;;29.50;96.80;;;;;;5000625;28;20086;-61
2023/01/18 08:28:00;;;;;;;7.38;2.78;;;29.30;97.30;;;;;;4999516;28;20037;-61
2023/01/18 08:30:30;;;;;;;8.00;2.80;;;29.10;97.50;;;;;;5002057;28;20065;-60
2023/01/18 08:32:59;;;;;;;5.45;2.05;;;28.90;97.90;;;;;;4998358;28;20280;-65
2023/01/18 08:35:28;;;;;;;9.05;2.67;;;28.70;98.30;;;;;;4999386;28;20022;-60
2023/01/18 08:37:55;;;;;;;7.88;2.70;;;28.60;98.50;;;;;;4998935;28;20036;-60
2023/01/18 08:40:23;;;;;;;8.20;2.60;;;28.40;99.20;;;;;;4999042;28;20830;-60
2023/01/18 08:42:50;;;;;;;7.90;3.03;;;28.20;99.60;;;;;;4996994;28;20032;-64
2023/01/18 08:45:17;;;;;;;6.05;2.55;;;28.10;99.80;;;;;;4996805;28;20131;-64
2023/01/18 08:47:44;;;;;;;7.38;3.35;;;28.00;99.90;;;;;;4995895;28;20026;-62
2023/01/18 08:50:11;;;;;;;9.10;4.50;;;28.00;99.90;;;;;;4998438;28;20026;-64
2023/01/18 08:52:41;;;;;;;9.05;3.88;;;28.00;99.90;;;;;;4996660;28;20029;-65
2023/01/18 08:55:08;;;;;;;9.52;3.22;;;28.00;99.90;;;;;;4999173;28;20370;-63
2023/01/18 08:57:35;;;;;;;10.18;3.30;;;27.90;99.90;;;;;;4998960;28;20036;-64
2023/01/18 09:00:03;;;;;;;7.82;2.60;;;28.00;99.90;;;;;;4998705;28;20026;-61
2023/01/18 09:02:30;;;;;;;8.82;2.85;;;28.00;99.90;;;;;;4996800;28;20034;-61
2023/01/18 09:04:57;;;;;;;11.20;3.08;;;28.10;99.90;;;;;;4998430;28;20128;-65
2023/01/18 09:07:27;;;;;;;9.25;3.35;;;28.00;99.90;;;;;;4996210;28;20025;-60
2023/01/18 09:09:54;;;;;;;13.68;3.58;;;27.90;99.90;;;;;;4998385;28;20025;-62
2023/01/18 09:12:21;;;;;;;24.98;4.30;;;27.50;99.90;;;;;;4998694;28;20073;-65
2023/01/18 09:14:48;;;;;;;24.63;4.88;;;27.40;99.90;;;;;;4996103;28;20084;-64
2023/01/18 09:17:18;;;;;;;17.90;3.83;;;27.30;99.90;;;;;;4997909;28;20437;-64
2023/01/18 09:19:45;;;;;;;10.73;3.05;;;27.10;99.90;;;;;;4993673;28;20056;-64
2023/01/18 09:22:12;;;;;;;12.23;3.05;;;27.10;99.90;;;;;;4997939;28;20029;-65
2023/01/18 09:24:40;;;;;;;13.07;3.70;;;26.90;99.90;;;;;;4995718;28;20030;-64
2023/01/18 09:27:07;;;;;;;19.33;4.65;;;26.90;99.90;;;;;;4999025;28;20026;-66
2023/01/18 09:29:34;;;;;;;22.02;5.22;;;26.80;99.90;;;;;;4998278;28;20045;-63
2023/01/18 09:32:01;;;;;;;15.13;4.47;;;26.20;99.90;;;;;;4998056;28;20546;-60
2023/01/18 09:34:29;;;;;;;12.70;4.65;;;25.40;99.90;;;;;;4997992;28;20559;-61
2023/01/18 09:36:56;;;;;;;16.08;5.00;;;24.50;99.90;;;;;;4994725;28;20393;-63
2023/01/18 09:39:23;;;;;;;34.55;5.70;;;24.00;99.90;;;;;;4998825;28;20152;-65
2023/01/18 09:42:03;;;;;;;9.00;4.97;;;23.60;99.90;;;;;;4995887;28;20529;-66
2023/01/18 09:44:39;;;;;;;13.50;6.18;;;23.30;99.90;;;;;;4997787;28;20124;-62
2023/01/18 09:47:24;;;;;;;8.23;5.13;;;23.10;99.90;;;;;;4997192;28;20037;-60
2023/01/18 09:49:56;;;;;;;10.45;5.88;;;23.00;99.90;;;;;;4995407;28;20532;-62
2023/01/18 09:52:55;;;;;;;11.70;5.50;;;22.70;99.90;;;;;;4997894;28;20040;-60
2023/01/18 09:55:37;;;;;;;8.93;5.88;;;22.60;99.90;;;;;;4998546;28;20526;-61
2023/01/18 09:58:22;;;;;;;11.10;6.30;;;22.40;99.90;;;;;;4996844;28;20064;-60
2023/01/18 10:00:49;;;;;;;11.02;7.03;;;22.20;99.90;;;;;;4995786;28;20053;-61
2023/01/18 10:03:27;;;;;;;15.23;8.85;;;22.10;99.90;;;;;;5000724;28;20040;-64
2023/01/18 10:06:07;;;;;;;14.45;7.07;;;22.10;99.90;;;;;;4996466;28;20269;-63
2023/01/18 10:08:58;;;;;;;13.98;9.40;;;22.00;99.90;;;;;;4995608;28;20022;-60
2023/01/18 10:31:06;;;;;;;6.10;3.55;;;22.00;99.90;;;;;;5089577;27;20948;-61
2023/01/18 10:33:39;;;;;;;5.03;3.25;;;22.30;99.90;;;;;;5069999;28;20028;-60
2023/01/18 10:36:23;;;;;;;4.13;3.67;;;22.30;99.90;;;;;;5069554;28;20017;-62
2023/01/18 10:38:54;;;;;;;4.13;3.38;;;22.20;99.90;;;;;;5069795;28;20829;-60
2023/01/18 10:41:32;;;;;;;6.85;4.05;;;22.20;99.90;;;;;;5063825;28;20027;-59
2023/01/18 10:43:59;;;;;;;9.10;4.60;;;22.20;99.90;;;;;;5069775;28;20063;-58
2023/01/18 10:46:26;;;;;;;9.05;5.22;;;22.20;99.90;;;;;;5059568;28;20476;-60
2023/01/18 10:48:56;;;;;;;7.47;4.75;;;22.20;99.90;;;;;;5069110;28;20063;-60
2023/01/18 10:51:35;;;;;;;10.32;4.70;;;22.20;99.90;;;;;;5064824;28;20039;-59
2023/01/18 10:54:17;;;;;;;5.93;4.10;;;22.20;99.90;;;;;;4714370;28;10000779;-62
2023/01/18 10:56:45;;;;;;;4.43;3.47;;;22.20;99.90;;;;;;5059946;28;20208;-60
2023/01/18 10:59:39;;;;;;;5.57;3.80;;;22.10;99.90;;;;;;5063464;28;20115;-64
2023/01/18 11:02:22;;;;;;;5.57;4.43;;;22.10;99.90;;;;;;5054017;28;20033;-64
2023/01/18 11:04:56;;;;;;;8.98;4.40;;;22.10;99.90;;;;;;5063161;28;20499;-64
2023/01/18 11:07:28;;;;;;;7.10;4.28;;;22.00;99.90;;;;;;5059703;28;20023;-63
2023/01/18 11:10:08;;;;;;;11.25;4.10;;;22.00;99.90;;;;;;5056366;28;20132;-63
2023/01/18 11:12:43;;;;;;;7.05;4.30;;;22.00;99.90;;;;;;5064802;28;20024;-63
2023/01/18 11:15:16;;;;;;;5.75;4.28;;;22.00;99.90;;;;;;5062618;28;20101;-63
2023/01/18 11:18:01;;;;;;;7.95;4.43;;;22.00;99.90;;;;;;5061595;28;20441;-62
2023/01/18 11:20:49;;;;;;;7.43;5.70;;;22.00;99.90;;;;;;5062958;28;20085;-64
2023/01/18 11:23:16;;;;;;;9.52;7.03;;;21.90;99.90;;;;;;5059542;28;20028;-58
2023/01/18 11:25:55;;;;;;;10.70;7.75;;;22.00;99.90;;;;;;5061411;28;20073;-59
2023/01/18 11:28:27;;;;;;;7.22;5.65;;;22.00;99.90;;;;;;5055640;28;20106;-60
2023/01/18 11:31:15;;;;;;;5.47;4.22;;;22.00;99.90;;;;;;5054234;28;20480;-60
2023/01/18 11:33:53;;;;;;;5.43;4.22;;;22.00;99.90;;;;;;5042914;28;20044;-60
2023/01/18 11:36:41;;;;;;;6.68;4.95;;;22.00;99.90;;;;;;5048080;28;20056;-61
2023/01/18 11:39:27;;;;;;;5.70;4.30;;;22.00;99.90;;;;;;5042190;28;20174;-65
2023/01/18 11:42:13;;;;;;;6.22;4.55;;;22.10;99.90;;;;;;5048508;28;20025;-61
2023/01/18 11:44:53;;;;;;;6.55;4.40;;;22.10;99.90;;;;;;4955201;28;20035;-61
2023/01/18 11:47:27;;;;;;;6.40;4.20;;;22.10;99.90;;;;;;4954245;28;20462;-64
2023/01/18 11:50:05;;;;;;;8.07;4.28;;;22.00;99.90;;;;;;4959030;28;20042;-63
2023/01/18 11:52:47;;;;;;;10.07;4.80;;;22.00;99.90;;;;;;4955915;28;20343;-61
2023/01/18 11:55:54;;;;;;;6.80;4.40;;;22.00;99.90;;;;;;4954009;28;20066;-63
2023/01/18 11:58:35;;;;;;;6.35;3.97;;;21.90;99.90;;;;;;4897667;29;20041;-61
2023/01/18 12:01:20;;;;;;;7.57;4.32;;;21.80;99.90;;;;;;4893029;29;20453;-60
2023/01/18 12:03:47;;;;;;;8.65;4.35;;;21.80;99.90;;;;;;4893790;29;20028;-61
2023/01/18 12:06:35;;;;;;;8.07;4.85;;;21.70;99.90;;;;;;4900119;29;20032;-67
2023/01/18 12:09:38;;;;;;;8.90;5.05;;;21.70;99.90;;;;;;4897395;29;20480;-63
2023/01/18 12:12:22;;;;;;;9.07;5.10;;;21.80;99.90;;;;;;4897534;29;20168;-61
2023/01/18 12:15:12;;;;;;;6.28;4.68;;;21.70;99.90;;;;;;4894919;29;20036;-62
2023/01/18 12:18:20;;;;;;;5.10;4.43;;;21.70;99.90;;;;;;4899771;29;20034;-64
2023/01/18 12:21:08;;;;;;;8.30;5.40;;;21.60;99.90;;;;;;4903450;28;20034;-64
2023/01/18 12:23:56;;;;;;;7.45;5.25;;;21.70;99.90;;;;;;4952890;28;20136;-62
2023/01/18 12:26:45;;;;;;;7.80;5.63;;;21.70;99.90;;;;;;4955115;28;21229;-62
2023/01/18 12:29:28;;;;;;;5.18;3.63;;;21.70;99.90;;;;;;4962291;28;20046;-62
2023/01/18 12:32:12;;;;;;;7.22;4.13;;;21.70;99.90;;;;;;4972730;28;20042;-62
2023/01/18 12:34:55;;;;;;;5.57;4.30;;;21.70;99.90;;;;;;5002493;28;20553;-60
2023/01/18 12:37:46;;;;;;;7.25;4.60;;;21.70;99.90;;;;;;5046900;28;20273;-64
2023/01/18 12:40:30;;;;;;;9.05;4.93;;;21.70;99.90;;;;;;5046553;28;20039;-64
2023/01/18 12:43:05;;;;;;;8.10;4.97;;;21.60;99.90;;;;;;5047325;28;20025;-60
2023/01/18 12:45:52;;;;;;;6.75;4.88;;;21.70;99.90;;;;;;5045593;28;20028;-62
2023/01/18 12:48:28;;;;;;;9.68;5.18;;;21.70;99.90;;;;;;5048615;28;20101;-65
2023/01/18 12:50:55;;;;;;;5.93;5.32;;;21.70;99.90;;;;;;5047708;28;20151;-61
2023/01/18 12:53:52;;;;;;;9.68;5.65;;;21.70;99.90;;;;;;5049891;28;20025;-60
2023/01/18 12:56:32;;;;;;;6.18;5.18;;;21.70;99.90;;;;;;5047255;28;20025;-63
2023/01/18 12:59:27;;;;;;;11.60;5.88;;;21.70;99.90;;;;;;5051264;28;20048;-62
2023/01/18 13:02:20;;;;;;;9.82;5.20;;;21.70;99.90;;;;;;5047573;28;20422;-62
2023/01/18 13:04:54;;;;;;;7.55;5.22;;;21.70;99.90;;;;;;5043995;28;20085;-63
2023/01/18 13:07:28;;;;;;;8.52;5.07;;;21.70;99.90;;;;;;5044465;28;20034;-62
2023/01/18 13:09:56;;;;;;;7.60;4.72;;;21.70;99.90;;;;;;5049277;28;20033;-63
2023/01/18 13:12:24;;;;;;;11.95;5.45;;;21.80;99.90;;;;;;5049202;28;20017;-62
2023/01/18 13:15:00;;;;;;;7.35;5.13;;;21.80;99.90;;;;;;5047547;28;20029;-61
2023/01/18 13:17:34;;;;;;;8.77;5.15;;;21.80;99.90;;;;;;5045568;28;20025;-60
2023/01/18 13:20:16;;;;;;;8.77;6.13;;;21.80;99.90;;;;;;5050654;28;20025;-63
2023/01/18 13:23:01;;;;;;;9.17;4.97;;;21.80;99.90;;;;;;5055292;28;20079;-62
2023/01/18 13:25:38;;;;;;;7.28;4.55;;;21.80;99.90;;;;;;5048945;28;20626;-60
2023/01/18 13:28:22;;;;;;;6.43;4.85;;;21.90;99.90;;;;;;5043300;28;20021;-61
2023/01/18 13:31:03;;;;;;;8.30;4.97;;;21.80;99.90;;;;;;5050422;28;20041;-63
2023/01/18 13:33:44;;;;;;;9.73;5.80;;;21.90;99.90;;;;;;5047874;28;20040;-62
2023/01/18 13:36:17;;;;;;;8.95;4.60;;;21.90;99.90;;;;;;5047738;28;20025;-63
2023/01/18 13:39:14;;;;;;;8.45;5.30;;;21.90;99.90;;;;;;5045936;28;20028;-62
2023/01/18 13:42:03;;;;;;;9.88;6.28;;;21.80;99.90;;;;;;5047625;28;20041;-62
2023/01/18 13:44:42;;;;;;;7.00;6.25;;;21.90;99.90;;;;;;5049165;28;20056;-64
2023/01/18 13:47:50;;;;;;;9.02;6.10;;;21.90;99.90;;;;;;5048994;28;20842;-59
2023/01/18 13:50:38;;;;;;;6.55;5.70;;;22.00;99.90;;;;;;5044150;28;20040;-59
2023/01/18 13:53:14;;;;;;;9.10;5.88;;;22.00;99.90;;;;;;5046653;28;20032;-61
2023/01/18 13:55:59;;;;;;;6.63;5.93;;;22.00;99.90;;;;;;5047961;28;20036;-60
2023/01/18 13:58:28;;;;;;;8.63;6.10;;;22.00;99.90;;;;;;5042877;28;20027;-60
2023/01/18 14:00:58;;;;;;;7.93;5.78;;;22.00;99.90;;;;;;5050656;28;20040;-60
2023/01/18 14:03:28;;;;;;;8.30;5.38;;;22.00;99.90;;;;;;5047762;28;20021;-60